SWA2759 KBWI-KROC
Flight info
| Callsign | SWA2759 |
|---|---|
| Flight time | 0h 52m |
| Altitude | 27000 |
| Route | LINSE2 JERES Q227 STUBN GIBBE |
| Aircraft | B738/M-SDE2E3GIJ4RWZ/LB1D1 |
Departure
| Time | 2026-04-22 22:44 |
|---|---|
| Airport | Baltimore/Washington International Thurgood Marshall Airport (KBWI) |
Arrival
| Time | 2026-04-22 23:37 |
|---|---|
| Airport | Frederick Douglass Greater Rochester International Airport (KROC) |
| Time | Latitude | Longitude | Altitude | Speed | Heading |
|---|---|---|---|---|---|
| 2026-04-22 21:12 | 39.17754 | -76.67086 | 155 ft | 0 kts | 81° |
| 2026-04-22 22:32 | 39.17752 | -76.67099 | 154 ft | 4 kts | 77° |
| 2026-04-22 22:32 | 39.17744 | -76.67131 | 155 ft | 4 kts | 57° |
| 2026-04-22 22:32 | 39.17726 | -76.67153 | 155 ft | 4 kts | 14° |
| 2026-04-22 22:32 | 39.17709 | -76.67151 | 155 ft | 0 kts | 324° |
| 2026-04-22 22:36 | 39.17716 | -76.67158 | 154 ft | 3 kts | 324° |
| 2026-04-22 22:36 | 39.17748 | -76.67187 | 154 ft | 8 kts | 324° |
| 2026-04-22 22:37 | 39.17801 | -76.67235 | 154 ft | 10 kts | 324° |
| 2026-04-22 22:37 | 39.17859 | -76.67290 | 153 ft | 10 kts | 323° |
| 2026-04-22 22:37 | 39.17916 | -76.67344 | 153 ft | 10 kts | 324° |
| 2026-04-22 22:37 | 39.17972 | -76.67396 | 152 ft | 10 kts | 324° |
| 2026-04-22 22:38 | 39.17996 | -76.67467 | 150 ft | 10 kts | 242° |
| 2026-04-22 22:38 | 39.18020 | -76.67547 | 147 ft | 11 kts | 322° |
| 2026-04-22 22:38 | 39.18096 | -76.67617 | 146 ft | 16 kts | 324° |
| 2026-04-22 22:38 | 39.18205 | -76.67719 | 145 ft | 22 kts | 324° |
| 2026-04-22 22:39 | 39.18332 | -76.67834 | 145 ft | 22 kts | 325° |
| 2026-04-22 22:39 | 39.18454 | -76.67949 | 146 ft | 21 kts | 323° |
| 2026-04-22 22:39 | 39.18549 | -76.68038 | 147 ft | 12 kts | 323° |
| 2026-04-22 22:39 | 39.18571 | -76.68079 | 147 ft | 0 kts | 284° |
| 2026-04-22 22:43 | 39.18571 | -76.68082 | 147 ft | 1 kts | 284° |
| 2026-04-22 22:43 | 39.18568 | -76.68116 | 147 ft | 7 kts | 256° |
| 2026-04-22 22:43 | 39.18525 | -76.68183 | 144 ft | 9 kts | 190° |
| 2026-04-22 22:43 | 39.18457 | -76.68127 | 143 ft | 26 kts | 144° |
| 2026-04-22 22:44 | 39.18106 | -76.67803 | 145 ft | 96 kts | 144° |
| 2026-04-22 22:44 | 39.17412 | -76.67155 | 171 ft | 149 kts | 144° |
| 2026-04-22 22:44 | 39.16527 | -76.66334 | 636 ft | 158 kts | 141° |
| 2026-04-22 22:44 | 39.15651 | -76.65525 | 1433 ft | 153 kts | 146° |
| 2026-04-22 22:45 | 39.14639 | -76.64984 | 1858 ft | 173 kts | 180° |
| 2026-04-22 22:45 | 39.13437 | -76.65509 | 2178 ft | 201 kts | 218° |
| 2026-04-22 22:45 | 39.12687 | -76.67107 | 2508 ft | 224 kts | 258° |
| 2026-04-22 22:45 | 39.12953 | -76.69111 | 3037 ft | 239 kts | 300° |
| 2026-04-22 22:46 | 39.14165 | -76.70601 | 3893 ft | 242 kts | 320° |
| 2026-04-22 22:46 | 39.15459 | -76.71921 | 4940 ft | 233 kts | 317° |
| 2026-04-22 22:46 | 39.16666 | -76.73262 | 6060 ft | 226 kts | 315° |
| 2026-04-22 22:46 | 39.17821 | -76.74599 | 7171 ft | 222 kts | 315° |
| 2026-04-22 22:47 | 39.18845 | -76.76089 | 8071 ft | 226 kts | 297° |
| 2026-04-22 22:47 | 39.19371 | -76.78079 | 8697 ft | 245 kts | 285° |
| 2026-04-22 22:47 | 39.19675 | -76.80290 | 9493 ft | 255 kts | 281° |
| 2026-04-22 22:47 | 39.19772 | -76.82603 | 10367 ft | 264 kts | 275° |
| 2026-04-22 22:48 | 39.19753 | -76.85082 | 10668 ft | 291 kts | 273° |
| 2026-04-22 22:48 | 39.19719 | -76.87814 | 10913 ft | 317 kts | 273° |
| 2026-04-22 22:48 | 39.19697 | -76.90706 | 11547 ft | 327 kts | 274° |
| 2026-04-22 22:48 | 39.19687 | -76.93658 | 12378 ft | 331 kts | 274° |
| 2026-04-22 22:49 | 39.19685 | -76.96642 | 13224 ft | 335 kts | 275° |
| 2026-04-22 22:49 | 39.19915 | -76.99638 | 13996 ft | 337 kts | 284° |
| 2026-04-22 22:49 | 39.20405 | -77.02605 | 14746 ft | 340 kts | 286° |
| 2026-04-22 22:49 | 39.20925 | -77.05592 | 15520 ft | 343 kts | 285° |
| 2026-04-22 22:50 | 39.21422 | -77.08616 | 16267 ft | 347 kts | 285° |
| 2026-04-22 22:50 | 39.21956 | -77.11663 | 16845 ft | 349 kts | 291° |
| 2026-04-22 22:50 | 39.23030 | -77.14445 | 17013 ft | 347 kts | 306° |
| 2026-04-22 22:50 | 39.24667 | -77.16723 | 17023 ft | 347 kts | 318° |
| 2026-04-22 22:51 | 39.26500 | -77.18743 | 17016 ft | 346 kts | 320° |
| 2026-04-22 22:51 | 39.28351 | -77.20726 | 17022 ft | 346 kts | 320° |
| 2026-04-22 22:51 | 39.30198 | -77.22719 | 17020 ft | 346 kts | 320° |
| 2026-04-22 22:51 | 39.32033 | -77.24727 | 17012 ft | 346 kts | 319° |
| 2026-04-22 22:52 | 39.33862 | -77.26748 | 17012 ft | 346 kts | 319° |
| 2026-04-22 22:52 | 39.35683 | -77.28768 | 17011 ft | 346 kts | 319° |
| 2026-04-22 22:52 | 39.37622 | -77.30606 | 16996 ft | 347 kts | 331° |
| 2026-04-22 22:52 | 39.39822 | -77.31879 | 17016 ft | 347 kts | 335° |
| 2026-04-22 22:53 | 39.42051 | -77.33087 | 17006 ft | 347 kts | 335° |
| 2026-04-22 22:53 | 39.44279 | -77.34297 | 17012 ft | 347 kts | 335° |
| 2026-04-22 22:53 | 39.46502 | -77.35518 | 17010 ft | 347 kts | 335° |
| 2026-04-22 22:53 | 39.48725 | -77.36751 | 17005 ft | 347 kts | 335° |
| 2026-04-22 22:54 | 39.50936 | -77.37985 | 17166 ft | 346 kts | 335° |
| 2026-04-22 22:54 | 39.53146 | -77.39224 | 17613 ft | 347 kts | 334° |
| 2026-04-22 22:54 | 39.55372 | -77.40474 | 18228 ft | 351 kts | 334° |
| 2026-04-22 22:54 | 39.57629 | -77.41744 | 18804 ft | 356 kts | 334° |
| 2026-04-22 22:55 | 39.59908 | -77.43026 | 19435 ft | 359 kts | 334° |
| 2026-04-22 22:55 | 39.62209 | -77.44320 | 20062 ft | 362 kts | 334° |
| 2026-04-22 22:55 | 39.67191 | -77.45594 | 21287 ft | 376 kts | 356° |
| 2026-04-22 22:56 | 39.69822 | -77.45548 | 21870 ft | 380 kts | 357° |
| 2026-04-22 22:56 | 39.72479 | -77.45461 | 22414 ft | 384 kts | 357° |
| 2026-04-22 22:56 | 39.75132 | -77.45376 | 22980 ft | 387 kts | 356° |
| 2026-04-22 22:56 | 39.77832 | -77.45305 | 23537 ft | 390 kts | 356° |
| 2026-04-22 22:57 | 39.80560 | -77.45247 | 24002 ft | 393 kts | 356° |
| 2026-04-22 22:57 | 39.83307 | -77.45197 | 24451 ft | 397 kts | 356° |
| 2026-04-22 22:57 | 39.86080 | -77.45152 | 24881 ft | 400 kts | 356° |
| 2026-04-22 22:57 | 39.88877 | -77.45109 | 25300 ft | 404 kts | 356° |
| 2026-04-22 22:58 | 39.91698 | -77.45064 | 25717 ft | 407 kts | 356° |
| 2026-04-22 22:58 | 39.94538 | -77.45019 | 25965 ft | 411 kts | 356° |
| 2026-04-22 22:58 | 39.97434 | -77.44972 | 25981 ft | 422 kts | 356° |
| 2026-04-22 22:58 | 40.00407 | -77.44917 | 25994 ft | 432 kts | 356° |
| 2026-04-22 22:59 | 40.03434 | -77.44856 | 25992 ft | 437 kts | 356° |
| 2026-04-22 22:59 | 40.06471 | -77.44791 | 25982 ft | 435 kts | 356° |
| 2026-04-22 22:59 | 40.09493 | -77.44727 | 25982 ft | 434 kts | 356° |
| 2026-04-22 22:59 | 40.12510 | -77.44666 | 25980 ft | 433 kts | 356° |
| 2026-04-22 23:00 | 40.15522 | -77.44606 | 25978 ft | 432 kts | 356° |
| 2026-04-22 23:00 | 40.18525 | -77.44550 | 25979 ft | 431 kts | 356° |
| 2026-04-22 23:00 | 40.21520 | -77.44499 | 25976 ft | 431 kts | 356° |
| 2026-04-22 23:00 | 40.24515 | -77.44449 | 25979 ft | 430 kts | 356° |
| 2026-04-22 23:01 | 40.27507 | -77.44400 | 25973 ft | 430 kts | 356° |
| 2026-04-22 23:01 | 40.30495 | -77.44351 | 25977 ft | 429 kts | 356° |
| 2026-04-22 23:01 | 40.33483 | -77.44300 | 25981 ft | 429 kts | 356° |
| 2026-04-22 23:01 | 40.36473 | -77.44250 | 25978 ft | 429 kts | 356° |
| 2026-04-22 23:02 | 40.39454 | -77.44198 | 26143 ft | 428 kts | 356° |
| 2026-04-22 23:02 | 40.42438 | -77.44148 | 26316 ft | 430 kts | 356° |
| 2026-04-22 23:02 | 40.45434 | -77.44097 | 26494 ft | 431 kts | 356° |
| 2026-04-22 23:02 | 40.48432 | -77.44046 | 26675 ft | 431 kts | 356° |
| 2026-04-22 23:03 | 40.51429 | -77.43994 | 26845 ft | 430 kts | 356° |
| 2026-04-22 23:03 | 40.54419 | -77.43942 | 26950 ft | 430 kts | 356° |
| 2026-04-22 23:03 | 40.57417 | -77.43891 | 26952 ft | 431 kts | 356° |
| 2026-04-22 23:03 | 40.60370 | -77.43840 | 26958 ft | 429 kts | 356° |
| 2026-04-22 23:04 | 40.63351 | -77.43790 | 26956 ft | 428 kts | 356° |
| 2026-04-22 23:04 | 40.66330 | -77.43758 | 26964 ft | 428 kts | 355° |
| 2026-04-22 23:04 | 40.69304 | -77.43735 | 26956 ft | 428 kts | 355° |
| 2026-04-22 23:04 | 40.72280 | -77.43702 | 26955 ft | 428 kts | 357° |
| 2026-04-22 23:05 | 40.75258 | -77.43331 | 26948 ft | 433 kts | 5° |
| 2026-04-22 23:05 | 40.78212 | -77.42455 | 26969 ft | 435 kts | 8° |
| 2026-04-22 23:05 | 40.81157 | -77.41508 | 26955 ft | 436 kts | 8° |
| 2026-04-22 23:05 | 40.84108 | -77.40569 | 26951 ft | 436 kts | 8° |
| 2026-04-22 23:06 | 40.87067 | -77.39656 | 26955 ft | 437 kts | 7° |
| 2026-04-22 23:06 | 40.90032 | -77.38757 | 26951 ft | 437 kts | 7° |
| 2026-04-22 23:06 | 40.92995 | -77.37867 | 26953 ft | 437 kts | 7° |
| 2026-04-22 23:06 | 40.95959 | -77.36984 | 26956 ft | 437 kts | 7° |
| 2026-04-22 23:07 | 40.98930 | -77.36101 | 26950 ft | 437 kts | 7° |
| 2026-04-22 23:07 | 41.01896 | -77.35219 | 26949 ft | 437 kts | 7° |
| 2026-04-22 23:07 | 41.04856 | -77.34336 | 26946 ft | 437 kts | 7° |
| 2026-04-22 23:07 | 41.07819 | -77.33451 | 26955 ft | 436 kts | 7° |
| 2026-04-22 23:08 | 41.10778 | -77.32566 | 26942 ft | 436 kts | 7° |
| 2026-04-22 23:08 | 41.13734 | -77.31681 | 26955 ft | 435 kts | 7° |
| 2026-04-22 23:08 | 41.16689 | -77.30794 | 26957 ft | 436 kts | 7° |
| 2026-04-22 23:08 | 41.19648 | -77.29906 | 26944 ft | 436 kts | 7° |
| 2026-04-22 23:09 | 41.22604 | -77.29017 | 26934 ft | 435 kts | 7° |
| 2026-04-22 23:09 | 41.25553 | -77.28130 | 26952 ft | 434 kts | 7° |
| 2026-04-22 23:09 | 41.28497 | -77.27244 | 26953 ft | 434 kts | 7° |
| 2026-04-22 23:09 | 41.31437 | -77.26358 | 26951 ft | 432 kts | 7° |
| 2026-04-22 23:10 | 41.34371 | -77.25472 | 26961 ft | 432 kts | 7° |
| 2026-04-22 23:10 | 41.37300 | -77.24588 | 26947 ft | 432 kts | 7° |
| 2026-04-22 23:10 | 41.40236 | -77.23701 | 26934 ft | 433 kts | 7° |
| 2026-04-22 23:10 | 41.43189 | -77.22810 | 26720 ft | 435 kts | 7° |
| 2026-04-22 23:11 | 41.46140 | -77.21916 | 26536 ft | 434 kts | 7° |
| 2026-04-22 23:11 | 41.49046 | -77.21035 | 26361 ft | 434 kts | 7° |
| 2026-04-22 23:11 | 41.52039 | -77.20127 | 26119 ft | 435 kts | 7° |
| 2026-04-22 23:11 | 41.54954 | -77.19242 | 25834 ft | 436 kts | 7° |
| 2026-04-22 23:12 | 41.57898 | -77.18346 | 25544 ft | 433 kts | 7° |
| 2026-04-22 23:12 | 41.60825 | -77.17455 | 25253 ft | 430 kts | 7° |
| 2026-04-22 23:12 | 41.63731 | -77.16570 | 24966 ft | 428 kts | 7° |
| 2026-04-22 23:12 | 41.66631 | -77.15686 | 24685 ft | 426 kts | 7° |
| 2026-04-22 23:13 | 41.69522 | -77.14802 | 24398 ft | 425 kts | 7° |
| 2026-04-22 23:13 | 41.72395 | -77.13914 | 24052 ft | 423 kts | 7° |
| 2026-04-22 23:13 | 41.75253 | -77.13026 | 23682 ft | 420 kts | 7° |
| 2026-04-22 23:13 | 41.78093 | -77.12143 | 23274 ft | 418 kts | 7° |
| 2026-04-22 23:14 | 41.80914 | -77.11267 | 22848 ft | 416 kts | 7° |
| 2026-04-22 23:14 | 41.83729 | -77.10396 | 22409 ft | 413 kts | 7° |
| 2026-04-22 23:14 | 41.86514 | -77.09540 | 21924 ft | 410 kts | 6° |
| 2026-04-22 23:14 | 41.89281 | -77.08691 | 21343 ft | 405 kts | 6° |
| 2026-04-22 23:15 | 41.92012 | -77.07853 | 20784 ft | 401 kts | 6° |
| 2026-04-22 23:15 | 41.94720 | -77.07021 | 20244 ft | 397 kts | 6° |
| 2026-04-22 23:15 | 41.96499 | -77.06475 | 19886 ft | 395 kts | 6° |
| 2026-04-22 23:15 | 41.99172 | -77.05653 | 19360 ft | 392 kts | 6° |
| 2026-04-22 23:16 | 42.01823 | -77.04837 | 18830 ft | 390 kts | 6° |
| 2026-04-22 23:16 | 42.04464 | -77.04024 | 18325 ft | 388 kts | 6° |
| 2026-04-22 23:16 | 42.07086 | -77.03214 | 17740 ft | 386 kts | 6° |
| 2026-04-22 23:16 | 42.09703 | -77.02491 | 17152 ft | 380 kts | 2° |
| 2026-04-22 23:17 | 42.12301 | -77.02251 | 16587 ft | 371 kts | 356° |
| 2026-04-22 23:17 | 42.14871 | -77.02134 | 16025 ft | 367 kts | 356° |
| 2026-04-22 23:17 | 42.17407 | -77.02018 | 15467 ft | 362 kts | 356° |
| 2026-04-22 23:17 | 42.19910 | -77.01898 | 14934 ft | 358 kts | 356° |
| 2026-04-22 23:18 | 42.22387 | -77.01772 | 14389 ft | 354 kts | 356° |
| 2026-04-22 23:18 | 42.24836 | -77.01644 | 13862 ft | 350 kts | 357° |
| 2026-04-22 23:18 | 42.27253 | -77.01566 | 13327 ft | 343 kts | 351° |
| 2026-04-22 23:18 | 42.29438 | -77.02451 | 12757 ft | 320 kts | 327° |
| 2026-04-22 23:19 | 42.31209 | -77.04155 | 12270 ft | 308 kts | 319° |
| 2026-04-22 23:19 | 42.32840 | -77.05975 | 11754 ft | 300 kts | 318° |
| 2026-04-22 23:19 | 42.34418 | -77.07775 | 11258 ft | 293 kts | 317° |
| 2026-04-22 23:19 | 42.35939 | -77.09508 | 11073 ft | 278 kts | 317° |
| 2026-04-22 23:20 | 42.37325 | -77.11216 | 10912 ft | 262 kts | 314° |
| 2026-04-22 23:20 | 42.38612 | -77.12903 | 10678 ft | 253 kts | 314° |
| 2026-04-22 23:20 | 42.39854 | -77.14553 | 10434 ft | 248 kts | 314° |
| 2026-04-22 23:20 | 42.41080 | -77.16183 | 10198 ft | 247 kts | 314° |
| 2026-04-22 23:21 | 42.42304 | -77.17813 | 9962 ft | 247 kts | 314° |
| 2026-04-22 23:21 | 42.43530 | -77.19445 | 9695 ft | 247 kts | 314° |
| 2026-04-22 23:21 | 42.44752 | -77.21076 | 9438 ft | 246 kts | 314° |
| 2026-04-22 23:21 | 42.45970 | -77.22699 | 9173 ft | 246 kts | 314° |
| 2026-04-22 23:22 | 42.47189 | -77.24320 | 8922 ft | 245 kts | 314° |
| 2026-04-22 23:22 | 42.48409 | -77.25941 | 8671 ft | 247 kts | 314° |
| 2026-04-22 23:22 | 42.49638 | -77.27569 | 8432 ft | 248 kts | 314° |
| 2026-04-22 23:22 | 42.50871 | -77.29202 | 8161 ft | 248 kts | 314° |
| 2026-04-22 23:23 | 42.52102 | -77.30832 | 7909 ft | 247 kts | 314° |
| 2026-04-22 23:23 | 42.53330 | -77.32459 | 7662 ft | 247 kts | 314° |
| 2026-04-22 23:23 | 42.54559 | -77.34083 | 7420 ft | 247 kts | 314° |
| 2026-04-22 23:23 | 42.55793 | -77.35705 | 7179 ft | 248 kts | 314° |
| 2026-04-22 23:24 | 42.57032 | -77.37336 | 6932 ft | 248 kts | 314° |
| 2026-04-22 23:24 | 42.58251 | -77.38939 | 6681 ft | 240 kts | 314° |
| 2026-04-22 23:24 | 42.59437 | -77.40490 | 6447 ft | 233 kts | 314° |
| 2026-04-22 23:24 | 42.60572 | -77.41966 | 6255 ft | 225 kts | 314° |
| 2026-04-22 23:25 | 42.61683 | -77.43416 | 6017 ft | 218 kts | 314° |
| 2026-04-22 23:25 | 42.62754 | -77.44813 | 5807 ft | 210 kts | 314° |
| 2026-04-22 23:25 | 42.63803 | -77.46176 | 5614 ft | 208 kts | 314° |
| 2026-04-22 23:25 | 42.64852 | -77.47539 | 5450 ft | 210 kts | 314° |
| 2026-04-22 23:26 | 42.65913 | -77.48932 | 5216 ft | 213 kts | 313° |
| 2026-04-22 23:26 | 42.66952 | -77.50344 | 5073 ft | 209 kts | 313° |
| 2026-04-22 23:26 | 42.67961 | -77.51759 | 4946 ft | 208 kts | 313° |
| 2026-04-22 23:26 | 42.68963 | -77.53169 | 4750 ft | 205 kts | 313° |
| 2026-04-22 23:27 | 42.69958 | -77.54552 | 4636 ft | 204 kts | 313° |
| 2026-04-22 23:27 | 42.70964 | -77.55936 | 4506 ft | 207 kts | 313° |
| 2026-04-22 23:27 | 42.71983 | -77.57334 | 4380 ft | 209 kts | 313° |
| 2026-04-22 23:27 | 42.73016 | -77.58732 | 4244 ft | 208 kts | 313° |
| 2026-04-22 23:28 | 42.74038 | -77.60135 | 4135 ft | 210 kts | 313° |
| 2026-04-22 23:28 | 42.75061 | -77.61551 | 4009 ft | 209 kts | 313° |
| 2026-04-22 23:28 | 42.76069 | -77.62952 | 3856 ft | 204 kts | 313° |
| 2026-04-22 23:28 | 42.77061 | -77.64324 | 3767 ft | 204 kts | 313° |
| 2026-04-22 23:29 | 42.78074 | -77.65725 | 3627 ft | 212 kts | 313° |
| 2026-04-22 23:29 | 42.79127 | -77.67195 | 3546 ft | 222 kts | 313° |
| 2026-04-22 23:29 | 42.80219 | -77.68733 | 3432 ft | 230 kts | 313° |
| 2026-04-22 23:29 | 42.81328 | -77.70309 | 3295 ft | 228 kts | 313° |
| 2026-04-22 23:30 | 42.82411 | -77.71846 | 3172 ft | 223 kts | 313° |
| 2026-04-22 23:30 | 42.83486 | -77.73369 | 3082 ft | 224 kts | 312° |
| 2026-04-22 23:30 | 42.84570 | -77.74900 | 3016 ft | 223 kts | 313° |
| 2026-04-22 23:30 | 42.85640 | -77.76418 | 3031 ft | 222 kts | 313° |
| 2026-04-22 23:31 | 42.86715 | -77.77945 | 3026 ft | 224 kts | 313° |
| 2026-04-22 23:31 | 42.87771 | -77.79455 | 2959 ft | 219 kts | 313° |
| 2026-04-22 23:31 | 42.88810 | -77.80940 | 2973 ft | 210 kts | 313° |
| 2026-04-22 23:31 | 42.89827 | -77.82341 | 3026 ft | 211 kts | 320° |
| 2026-04-22 23:32 | 42.91185 | -77.82934 | 3002 ft | 212 kts | 359° |
| 2026-04-22 23:32 | 42.92625 | -77.82734 | 3034 ft | 202 kts | 3° |
| 2026-04-22 23:32 | 42.93976 | -77.82478 | 3006 ft | 193 kts | 14° |
| 2026-04-22 23:32 | 42.95198 | -77.81703 | 3027 ft | 195 kts | 23° |
| 2026-04-22 23:33 | 42.96400 | -77.80818 | 2992 ft | 196 kts | 27° |
| 2026-04-22 23:33 | 42.97575 | -77.79860 | 3077 ft | 201 kts | 28° |
| 2026-04-22 23:33 | 42.98781 | -77.78835 | 2988 ft | 200 kts | 27° |
| 2026-04-22 23:33 | 42.99945 | -77.77816 | 2918 ft | 200 kts | 32° |
| 2026-04-22 23:34 | 43.01084 | -77.76855 | 2772 ft | 188 kts | 24° |
| 2026-04-22 23:34 | 43.02229 | -77.75945 | 2520 ft | 193 kts | 29° |
| 2026-04-22 23:34 | 43.03364 | -77.74960 | 2250 ft | 193 kts | 28° |
| 2026-04-22 23:34 | 43.04491 | -77.73969 | 2001 ft | 191 kts | 28° |
| 2026-04-22 23:35 | 43.05604 | -77.73064 | 1735 ft | 179 kts | 27° |
| 2026-04-22 23:35 | 43.06629 | -77.72210 | 1542 ft | 166 kts | 25° |
| 2026-04-22 23:35 | 43.07595 | -77.71511 | 1314 ft | 150 kts | 32° |
| 2026-04-22 23:35 | 43.08425 | -77.70700 | 1129 ft | 145 kts | 32° |
| 2026-04-22 23:36 | 43.09275 | -77.69960 | 937 ft | 145 kts | 30° |
| 2026-04-22 23:36 | 43.10135 | -77.69238 | 736 ft | 145 kts | 30° |
| 2026-04-22 23:36 | 43.10987 | -77.68523 | 561 ft | 138 kts | 32° |
| 2026-04-22 23:36 | 43.11672 | -77.67945 | 549 ft | 85 kts | 31° |
| 2026-04-22 23:37 | 43.11990 | -77.67676 | 548 ft | 22 kts | 31° |
| 2026-04-22 23:37 | 43.12030 | -77.67591 | 547 ft | 10 kts | 101° |
| 2026-04-22 23:37 | 43.12012 | -77.67503 | 549 ft | 10 kts | 90° |
| 2026-04-22 23:37 | 43.12060 | -77.67443 | 555 ft | 10 kts | 31° |
| 2026-04-22 23:38 | 43.12123 | -77.67390 | 550 ft | 11 kts | 31° |
| 2026-04-22 23:38 | 43.12188 | -77.67335 | 548 ft | 12 kts | 32° |
| 2026-04-22 23:38 | 43.12271 | -77.67264 | 547 ft | 17 kts | 32° |
| 2026-04-22 23:38 | 43.12375 | -77.67176 | 548 ft | 17 kts | 31° |
| 2026-04-22 23:39 | 43.12476 | -77.67092 | 549 ft | 15 kts | 31° |
| 2026-04-22 23:39 | 43.12510 | -77.66983 | 549 ft | 13 kts | 86° |
| 2026-04-22 23:39 | 43.12514 | -77.66863 | 549 ft | 13 kts | 88° |
| 2026-04-22 23:39 | 43.12517 | -77.66745 | 549 ft | 12 kts | 88° |
| 2026-04-22 23:40 | 43.12520 | -77.66631 | 549 ft | 12 kts | 89° |
| 2026-04-22 23:40 | 43.12542 | -77.66530 | 549 ft | 11 kts | 46° |
| 2026-04-22 23:40 | 43.12610 | -77.66509 | 549 ft | 9 kts | 343° |
| 2026-04-22 23:40 | 43.12649 | -77.66566 | 554 ft | 7 kts | 296° |
| 2026-04-22 23:41 | 43.12661 | -77.66594 | 549 ft | 2 kts | 301° |
| 2026-04-22 23:41 | 43.12662 | -77.66596 | 549 ft | 0 kts | 301° |